sensor_id;sensor_type;location;lat;lon;timestamp;P1;durP1;ratioP1;P2;durP2;ratioP2
72479;SDS011;60503;43.540;-5.510;2023-07-13T07:43:30;3.25;;;1.00;;
72479;SDS011;60503;43.540;-5.510;2023-07-13T07:45:57;3.50;;;0.90;;
72479;SDS011;60503;43.540;-5.510;2023-07-13T07:48:22;2.30;;;0.95;;
72479;SDS011;60503;43.540;-5.510;2023-07-13T07:50:48;2.85;;;1.00;;
72479;SDS011;60503;43.540;-5.510;2023-07-13T07:53:13;3.83;;;1.95;;
72479;SDS011;60503;43.540;-5.510;2023-07-13T07:55:39;4.07;;;1.20;;
72479;SDS011;60503;43.540;-5.510;2023-07-13T07:58:05;2.67;;;0.95;;
72479;SDS011;60503;43.540;-5.510;2023-07-13T08:00:31;3.47;;;1.10;;
72479;SDS011;60503;43.540;-5.510;2023-07-13T08:02:57;5.68;;;0.90;;
72479;SDS011;60503;43.540;-5.510;2023-07-13T08:05:23;2.25;;;0.80;;
72479;SDS011;60503;43.540;-5.510;2023-07-13T08:07:49;1.35;;;0.82;;
72479;SDS011;60503;43.540;-5.510;2023-07-13T08:10:15;2.10;;;0.80;;
72479;SDS011;60503;43.540;-5.510;2023-07-13T08:12:40;4.30;;;1.00;;
72479;SDS011;60503;43.540;-5.510;2023-07-13T08:15:06;2.70;;;0.90;;
72479;SDS011;60503;43.540;-5.510;2023-07-13T08:17:35;4.75;;;1.00;;
72479;SDS011;60503;43.540;-5.510;2023-07-13T08:20:01;3.03;;;0.90;;
72479;SDS011;60503;43.540;-5.510;2023-07-13T08:22:27;2.25;;;0.80;;
72479;SDS011;60503;43.540;-5.510;2023-07-13T08:24:52;3.85;;;0.90;;
72479;SDS011;60503;43.540;-5.510;2023-07-13T08:27:21;3.35;;;1.00;;
72479;SDS011;60503;43.540;-5.510;2023-07-13T08:29:48;4.65;;;1.05;;
72479;SDS011;60503;43.540;-5.510;2023-07-13T08:34:49;3.65;;;1.15;;
72479;SDS011;60503;43.540;-5.510;2023-07-13T08:37:15;3.63;;;0.80;;
72479;SDS011;60503;43.540;-5.510;2023-07-13T08:39:41;6.35;;;0.82;;
72479;SDS011;60503;43.540;-5.510;2023-07-13T08:45:06;3.47;;;0.90;;
72479;SDS011;60503;43.540;-5.510;2023-07-13T08:47:34;2.67;;;1.02;;
72479;SDS011;60503;43.540;-5.510;2023-07-13T08:53:23;2.83;;;0.80;;
72479;SDS011;60503;43.540;-5.510;2023-07-13T08:55:58;3.70;;;0.93;;
72479;SDS011;60503;43.540;-5.510;2023-07-13T08:58:24;3.85;;;1.15;;
72479;SDS011;60503;43.540;-5.510;2023-07-13T09:03:42;7.90;;;0.77;;
72479;SDS011;60503;43.540;-5.510;2023-07-13T09:06:15;2.90;;;0.85;;
72479;SDS011;60503;43.540;-5.510;2023-07-13T09:08:48;2.60;;;0.95;;
72479;SDS011;60503;43.540;-5.510;2023-07-13T09:11:32;4.47;;;0.90;;
72479;SDS011;60503;43.540;-5.510;2023-07-13T09:17:08;5.65;;;0.90;;
72479;SDS011;60503;43.540;-5.510;2023-07-13T09:19:37;6.65;;;1.00;;
72479;SDS011;60503;43.540;-5.510;2023-07-13T09:22:03;3.40;;;1.02;;
72479;SDS011;60503;43.540;-5.510;2023-07-13T09:27:09;4.10;;;0.90;;
72479;SDS011;60503;43.540;-5.510;2023-07-13T09:29:46;1.73;;;0.73;;
72479;SDS011;60503;43.540;-5.510;2023-07-13T09:32:14;5.33;;;1.20;;
72479;SDS011;60503;43.540;-5.510;2023-07-13T09:34:42;2.60;;;0.80;;
72479;SDS011;60503;43.540;-5.510;2023-07-13T09:37:16;2.95;;;0.90;;
72479;SDS011;60503;43.540;-5.510;2023-07-13T09:39:41;2.15;;;0.80;;
72479;SDS011;60503;43.540;-5.510;2023-07-13T09:42:12;2.88;;;0.60;;
72479;SDS011;60503;43.540;-5.510;2023-07-13T09:47:29;2.92;;;0.80;;
72479;SDS011;60503;43.540;-5.510;2023-07-13T09:52:25;2.15;;;0.60;;
72479;SDS011;60503;43.540;-5.510;2023-07-13T09:54:53;30.83;;;6.38;;
72479;SDS011;60503;43.540;-5.510;2023-07-13T09:57:24;2.80;;;0.80;;
72479;SDS011;60503;43.540;-5.510;2023-07-13T09:59:51;4.32;;;0.73;;
72479;SDS011;60503;43.540;-5.510;2023-07-13T10:05:01;3.92;;;0.90;;
72479;SDS011;60503;43.540;-5.510;2023-07-13T10:07:29;5.60;;;0.90;;
72479;SDS011;60503;43.540;-5.510;2023-07-13T10:09:56;3.28;;;1.00;;
72479;SDS011;60503;43.540;-5.510;2023-07-13T10:12:23;4.55;;;0.80;;
72479;SDS011;60503;43.540;-5.510;2023-07-13T10:14:50;7.80;;;3.08;;
72479;SDS011;60503;43.540;-5.510;2023-07-13T10:17:18;3.47;;;1.27;;
72479;SDS011;60503;43.540;-5.510;2023-07-13T10:19:51;4.55;;;1.25;;
72479;SDS011;60503;43.540;-5.510;2023-07-13T10:22:27;3.60;;;0.85;;
72479;SDS011;60503;43.540;-5.510;2023-07-13T10:24:55;7.63;;;1.10;;
72479;SDS011;60503;43.540;-5.510;2023-07-13T10:27:26;2.90;;;0.60;;
72479;SDS011;60503;43.540;-5.510;2023-07-13T10:29:59;1.63;;;0.70;;
72479;SDS011;60503;43.540;-5.510;2023-07-13T10:32:27;2.33;;;0.90;;
72479;SDS011;60503;43.540;-5.510;2023-07-13T10:34:53;2.47;;;0.77;;
72479;SDS011;60503;43.540;-5.510;2023-07-13T10:37:24;3.15;;;0.77;;
72479;SDS011;60503;43.540;-5.510;2023-07-13T10:39:52;1.90;;;0.80;;
72479;SDS011;60503;43.540;-5.510;2023-07-13T10:42:27;1.90;;;0.75;;
72479;SDS011;60503;43.540;-5.510;2023-07-13T10:44:55;4.07;;;0.70;;
72479;SDS011;60503;43.540;-5.510;2023-07-13T10:47:20;5.05;;;0.73;;
72479;SDS011;60503;43.540;-5.510;2023-07-13T10:49:47;3.05;;;0.70;;
72479;SDS011;60503;43.540;-5.510;2023-07-13T10:55:36;5.22;;;1.25;;
72479;SDS011;60503;43.540;-5.510;2023-07-13T11:03:28;5.13;;;0.70;;
72479;SDS011;60503;43.540;-5.510;2023-07-13T11:06:12;5.45;;;1.02;;
72479;SDS011;60503;43.540;-5.510;2023-07-13T11:11:54;6.22;;;0.70;;
72479;SDS011;60503;43.540;-5.510;2023-07-13T11:14:04;3.00;;;1.33;;
72479;SDS011;60503;43.540;-5.510;2023-07-13T11:16:45;4.88;;;0.60;;
72479;SDS011;60503;43.540;-5.510;2023-07-13T11:27:21;2.45;;;0.70;;
72479;SDS011;60503;43.540;-5.510;2023-07-13T11:30:34;9.93;;;1.55;;
72479;SDS011;60503;43.540;-5.510;2023-07-13T11:33:18;4.70;;;1.08;;
72479;SDS011;60503;43.540;-5.510;2023-07-13T11:38:39;3.58;;;0.82;;
72479;SDS011;60503;43.540;-5.510;2023-07-13T11:41:27;6.53;;;1.00;;
72479;SDS011;60503;43.540;-5.510;2023-07-13T11:46:35;2.70;;;0.70;;
72479;SDS011;60503;43.540;-5.510;2023-07-13T11:49:01;3.13;;;0.93;;
72479;SDS011;60503;43.540;-5.510;2023-07-13T11:51:34;1.77;;;0.60;;
72479;SDS011;60503;43.540;-5.510;2023-07-13T11:54:02;3.88;;;0.70;;
72479;SDS011;60503;43.540;-5.510;2023-07-13T11:56:29;20.38;;;3.55;;
72479;SDS011;60503;43.540;-5.510;2023-07-13T11:58:56;3.00;;;0.70;;
72479;SDS011;60503;43.540;-5.510;2023-07-13T12:01:27;4.07;;;0.88;;
72479;SDS011;60503;43.540;-5.510;2023-07-13T12:03:57;2.17;;;0.75;;
72479;SDS011;60503;43.540;-5.510;2023-07-13T12:06:31;5.70;;;1.17;;
72479;SDS011;60503;43.540;-5.510;2023-07-13T12:08:59;5.03;;;0.90;;
72479;SDS011;60503;43.540;-5.510;2023-07-13T12:11:26;4.72;;;0.80;;
72479;SDS011;60503;43.540;-5.510;2023-07-13T12:13:52;1.88;;;0.55;;
72479;SDS011;60503;43.540;-5.510;2023-07-13T12:18:49;4.40;;;1.00;;
72479;SDS011;60503;43.540;-5.510;2023-07-13T12:21:18;4.40;;;0.70;;
72479;SDS011;60503;43.540;-5.510;2023-07-13T12:23:44;1.63;;;0.50;;
72479;SDS011;60503;43.540;-5.510;2023-07-13T12:26:14;3.95;;;0.88;;
72479;SDS011;60503;43.540;-5.510;2023-07-13T12:28:46;2.95;;;0.70;;
72479;SDS011;60503;43.540;-5.510;2023-07-13T12:31:26;2.30;;;0.55;;
72479;SDS011;60503;43.540;-5.510;2023-07-13T12:47:39;2.83;;;0.77;;
72479;SDS011;60503;43.540;-5.510;2023-07-13T12:53:29;3.38;;;1.13;;
72479;SDS011;60503;43.540;-5.510;2023-07-13T12:55:59;6.70;;;1.00;;
72479;SDS011;60503;43.540;-5.510;2023-07-13T12:58:29;2.83;;;0.93;;
72479;SDS011;60503;43.540;-5.510;2023-07-13T13:00:58;2.33;;;1.17;;
72479;SDS011;60503;43.540;-5.510;2023-07-13T13:06:24;3.38;;;1.08;;
72479;SDS011;60503;43.540;-5.510;2023-07-13T13:08:52;4.65;;;1.10;;
72479;SDS011;60503;43.540;-5.510;2023-07-13T13:11:19;1.60;;;0.90;;
72479;SDS011;60503;43.540;-5.510;2023-07-13T13:17:16;2.88;;;0.95;;
72479;SDS011;60503;43.540;-5.510;2023-07-13T13:23:34;4.30;;;0.90;;
72479;SDS011;60503;43.540;-5.510;2023-07-13T13:26:00;3.53;;;0.73;;
72479;SDS011;60503;43.540;-5.510;2023-07-13T13:28:25;2.28;;;0.70;;
72479;SDS011;60503;43.540;-5.510;2023-07-13T13:30:51;3.45;;;0.88;;
72479;SDS011;60503;43.540;-5.510;2023-07-13T13:33:18;2.28;;;0.80;;
72479;SDS011;60503;43.540;-5.510;2023-07-13T13:35:45;3.55;;;0.90;;
72479;SDS011;60503;43.540;-5.510;2023-07-13T13:40:37;2.00;;;0.80;;
72479;SDS011;60503;43.540;-5.510;2023-07-13T13:46:19;2.58;;;0.77;;
72479;SDS011;60503;43.540;-5.510;2023-07-13T13:48:47;3.00;;;0.85;;
72479;SDS011;60503;43.540;-5.510;2023-07-13T13:51:17;4.65;;;0.90;;
72479;SDS011;60503;43.540;-5.510;2023-07-13T13:57:06;2.67;;;0.70;;
72479;SDS011;60503;43.540;-5.510;2023-07-13T13:59:32;4.60;;;0.90;;
72479;SDS011;60503;43.540;-5.510;2023-07-13T14:02:07;4.30;;;0.88;;
72479;SDS011;60503;43.540;-5.510;2023-07-13T14:04:45;2.78;;;0.70;;
72479;SDS011;60503;43.540;-5.510;2023-07-13T14:07:12;2.65;;;0.70;;
72479;SDS011;60503;43.540;-5.510;2023-07-13T14:09:37;3.33;;;0.85;;
72479;SDS011;60503;43.540;-5.510;2023-07-13T14:12:03;2.40;;;0.70;;
72479;SDS011;60503;43.540;-5.510;2023-07-13T14:14:47;2.63;;;0.77;;
72479;SDS011;60503;43.540;-5.510;2023-07-13T14:17:22;3.10;;;0.70;;
72479;SDS011;60503;43.540;-5.510;2023-07-13T14:19:50;3.88;;;0.75;;
72479;SDS011;60503;43.540;-5.510;2023-07-13T14:22:19;3.47;;;0.90;;
72479;SDS011;60503;43.540;-5.510;2023-07-13T14:24:48;2.42;;;0.90;;
72479;SDS011;60503;43.540;-5.510;2023-07-13T14:27:14;4.05;;;0.90;;
72479;SDS011;60503;43.540;-5.510;2023-07-13T14:29:40;3.13;;;0.88;;
72479;SDS011;60503;43.540;-5.510;2023-07-13T14:32:10;3.22;;;1.05;;
72479;SDS011;60503;43.540;-5.510;2023-07-13T14:34:36;2.95;;;0.70;;
72479;SDS011;60503;43.540;-5.510;2023-07-13T14:37:02;1.90;;;0.63;;
72479;SDS011;60503;43.540;-5.510;2023-07-13T14:39:29;2.03;;;0.60;;
72479;SDS011;60503;43.540;-5.510;2023-07-13T14:41:58;3.38;;;0.80;;
72479;SDS011;60503;43.540;-5.510;2023-07-13T14:44:25;2.55;;;0.60;;
72479;SDS011;60503;43.540;-5.510;2023-07-13T14:46:54;1.38;;;0.70;;
72479;SDS011;60503;43.540;-5.510;2023-07-13T14:51:45;2.97;;;0.68;;
72479;SDS011;60503;43.540;-5.510;2023-07-13T14:54:11;4.07;;;0.80;;
72479;SDS011;60503;43.540;-5.510;2023-07-13T14:59:58;2.15;;;0.85;;
72479;SDS011;60503;43.540;-5.510;2023-07-13T15:05:45;2.38;;;0.80;;
72479;SDS011;60503;43.540;-5.510;2023-07-13T15:08:11;3.38;;;0.80;;
72479;SDS011;60503;43.540;-5.510;2023-07-13T15:13:58;3.70;;;0.70;;
72479;SDS011;60503;43.540;-5.510;2023-07-13T15:16:24;6.10;;;0.80;;
72479;SDS011;60503;43.540;-5.510;2023-07-13T15:18:51;3.05;;;0.70;;
72479;SDS011;60503;43.540;-5.510;2023-07-13T15:21:19;3.00;;;0.80;;
72479;SDS011;60503;43.540;-5.510;2023-07-13T15:27:11;3.20;;;0.80;;
72479;SDS011;60503;43.540;-5.510;2023-07-13T15:29:37;4.13;;;0.90;;
72479;SDS011;60503;43.540;-5.510;2023-07-13T15:35:25;5.50;;;1.25;;
72479;SDS011;60503;43.540;-5.510;2023-07-13T15:37:52;3.35;;;0.80;;
72479;SDS011;60503;43.540;-5.510;2023-07-13T15:40:18;3.30;;;0.90;;
72479;SDS011;60503;43.540;-5.510;2023-07-13T15:42:46;2.28;;;0.93;;
72479;SDS011;60503;43.540;-5.510;2023-07-13T15:45:20;5.20;;;1.05;;
72479;SDS011;60503;43.540;-5.510;2023-07-13T15:47:48;2.60;;;1.00;;
72479;SDS011;60503;43.540;-5.510;2023-07-13T15:53:36;3.40;;;1.00;;
72479;SDS011;60503;43.540;-5.510;2023-07-13T15:56:25;4.38;;;1.02;;
72479;SDS011;60503;43.540;-5.510;2023-07-13T15:58:50;3.17;;;1.10;;
72479;SDS011;60503;43.540;-5.510;2023-07-13T16:01:17;3.22;;;1.00;;
72479;SDS011;60503;43.540;-5.510;2023-07-13T16:03:44;4.20;;;1.00;;
72479;SDS011;60503;43.540;-5.510;2023-07-13T16:06:14;2.88;;;1.00;;
72479;SDS011;60503;43.540;-5.510;2023-07-13T16:08:42;3.22;;;1.10;;
72479;SDS011;60503;43.540;-5.510;2023-07-13T16:11:12;5.93;;;1.23;;
72479;SDS011;60503;43.540;-5.510;2023-07-13T16:13:42;2.75;;;1.00;;
72479;SDS011;60503;43.540;-5.510;2023-07-13T16:19:34;4.07;;;1.20;;
72479;SDS011;60503;43.540;-5.510;2023-07-13T16:22:00;10.05;;;1.20;;
72479;SDS011;60503;43.540;-5.510;2023-07-13T16:24:26;3.72;;;1.00;;
72479;SDS011;60503;43.540;-5.510;2023-07-13T16:26:52;4.57;;;1.13;;
72479;SDS011;60503;43.540;-5.510;2023-07-13T16:29:27;2.65;;;0.93;;
72479;SDS011;60503;43.540;-5.510;2023-07-13T16:32:02;4.55;;;1.10;;
72479;SDS011;60503;43.540;-5.510;2023-07-13T16:34:30;2.65;;;1.20;;
72479;SDS011;60503;43.540;-5.510;2023-07-13T16:36:58;2.90;;;1.00;;
72479;SDS011;60503;43.540;-5.510;2023-07-13T16:39:27;4.10;;;0.95;;
72479;SDS011;60503;43.540;-5.510;2023-07-13T16:41:55;5.95;;;0.90;;
72479;SDS011;60503;43.540;-5.510;2023-07-13T16:44:23;5.97;;;1.15;;
72479;SDS011;60503;43.540;-5.510;2023-07-13T16:46:50;3.83;;;0.90;;
72479;SDS011;60503;43.540;-5.510;2023-07-13T16:49:25;2.38;;;1.00;;
72479;SDS011;60503;43.540;-5.510;2023-07-13T16:51:55;2.45;;;1.00;;
72479;SDS011;60503;43.540;-5.510;2023-07-13T16:54:26;6.85;;;1.15;;
72479;SDS011;60503;43.540;-5.510;2023-07-13T16:56:56;4.67;;;1.10;;
72479;SDS011;60503;43.540;-5.510;2023-07-13T16:59:22;14.70;;;1.38;;
72479;SDS011;60503;43.540;-5.510;2023-07-13T17:11:56;7.53;;;1.00;;
72479;SDS011;60503;43.540;-5.510;2023-07-13T17:14:22;14.00;;;2.20;;
72479;SDS011;60503;43.540;-5.510;2023-07-13T17:16:55;4.70;;;1.17;;
72479;SDS011;60503;43.540;-5.510;2023-07-13T17:19:22;4.10;;;1.25;;
72479;SDS011;60503;43.540;-5.510;2023-07-13T17:30:24;9.27;;;1.27;;
72479;SDS011;60503;43.540;-5.510;2023-07-13T17:32:50;14.18;;;1.20;;
72479;SDS011;60503;43.540;-5.510;2023-07-13T17:35:29;5.82;;;1.20;;
72479;SDS011;60503;43.540;-5.510;2023-07-13T17:41:17;5.32;;;1.30;;
72479;SDS011;60503;43.540;-5.510;2023-07-13T17:43:43;5.32;;;1.17;;
72479;SDS011;60503;43.540;-5.510;2023-07-13T17:46:13;4.10;;;1.00;;
72479;SDS011;60503;43.540;-5.510;2023-07-13T17:48:41;8.52;;;1.30;;
72479;SDS011;60503;43.540;-5.510;2023-07-13T17:51:10;8.85;;;1.20;;
72479;SDS011;60503;43.540;-5.510;2023-07-13T17:56:58;8.38;;;1.17;;
72479;SDS011;60503;43.540;-5.510;2023-07-13T18:02:46;6.13;;;0.93;;
72479;SDS011;60503;43.540;-5.510;2023-07-13T18:05:12;2.35;;;1.00;;
72479;SDS011;60503;43.540;-5.510;2023-07-13T18:07:39;4.63;;;1.20;;
72479;SDS011;60503;43.540;-5.510;2023-07-13T18:10:09;3.97;;;1.20;;
72479;SDS011;60503;43.540;-5.510;2023-07-13T18:12:38;5.72;;;1.20;;
72479;SDS011;60503;43.540;-5.510;2023-07-13T18:15:03;2.42;;;0.98;;
72479;SDS011;60503;43.540;-5.510;2023-07-13T18:17:29;3.33;;;1.10;;
72479;SDS011;60503;43.540;-5.510;2023-07-13T18:19:55;2.92;;;1.23;;
72479;SDS011;60503;43.540;-5.510;2023-07-13T18:22:21;2.28;;;1.02;;
72479;SDS011;60503;43.540;-5.510;2023-07-13T18:24:47;5.88;;;1.30;;
72479;SDS011;60503;43.540;-5.510;2023-07-13T18:27:13;5.43;;;1.00;;
72479;SDS011;60503;43.540;-5.510;2023-07-13T18:29:42;7.18;;;1.10;;
72479;SDS011;60503;43.540;-5.510;2023-07-13T18:32:18;4.55;;;1.20;;
72479;SDS011;60503;43.540;-5.510;2023-07-13T18:34:45;3.60;;;1.00;;
72479;SDS011;60503;43.540;-5.510;2023-07-13T18:40:32;3.95;;;1.10;;
72479;SDS011;60503;43.540;-5.510;2023-07-13T18:42:59;34.78;;;2.65;;
72479;SDS011;60503;43.540;-5.510;2023-07-13T18:45:24;5.80;;;1.20;;
72479;SDS011;60503;43.540;-5.510;2023-07-13T18:47:55;10.75;;;1.20;;
72479;SDS011;60503;43.540;-5.510;2023-07-13T18:53:45;5.60;;;1.25;;
72479;SDS011;60503;43.540;-5.510;2023-07-13T18:56:10;4.88;;;1.13;;
72479;SDS011;60503;43.540;-5.510;2023-07-13T18:58:37;5.28;;;1.13;;
72479;SDS011;60503;43.540;-5.510;2023-07-13T19:01:04;2.33;;;0.82;;
72479;SDS011;60503;43.540;-5.510;2023-07-13T19:03:36;6.97;;;1.15;;
72479;SDS011;60503;43.540;-5.510;2023-07-13T19:09:23;2.80;;;1.10;;
72479;SDS011;60503;43.540;-5.510;2023-07-13T19:11:50;6.00;;;1.02;;
72479;SDS011;60503;43.540;-5.510;2023-07-13T19:14:20;2.60;;;1.00;;
72479;SDS011;60503;43.540;-5.510;2023-07-13T19:16:49;6.93;;;1.30;;
72479;SDS011;60503;43.540;-5.510;2023-07-13T19:22:37;2.90;;;1.10;;
72479;SDS011;60503;43.540;-5.510;2023-07-13T19:28:26;6.80;;;1.23;;
72479;SDS011;60503;43.540;-5.510;2023-07-13T19:30:56;4.22;;;1.20;;
72479;SDS011;60503;43.540;-5.510;2023-07-13T19:33:22;5.60;;;1.27;;
72479;SDS011;60503;43.540;-5.510;2023-07-13T19:42:38;8.48;;;1.17;;
72479;SDS011;60503;43.540;-5.510;2023-07-13T19:44:57;3.45;;;1.10;;
72479;SDS011;60503;43.540;-5.510;2023-07-13T19:47:23;5.55;;;1.08;;
72479;SDS011;60503;43.540;-5.510;2023-07-13T19:49:50;1038.25;;;585.90;;
72479;SDS011;60503;43.540;-5.510;2023-07-13T19:52:20;1176.20;;;689.50;;
72479;SDS011;60503;43.540;-5.510;2023-07-13T19:54:50;1999.90;;;999.90;;
72479;SDS011;60503;43.540;-5.510;2023-07-13T19:59:43;1999.90;;;999.90;;
72479;SDS011;60503;43.540;-5.510;2023-07-13T20:05:38;1999.90;;;999.90;;
72479;SDS011;60503;43.540;-5.510;2023-07-13T20:08:05;1999.90;;;918.53;;
72479;SDS011;60503;43.540;-5.510;2023-07-13T20:14:09;1999.90;;;999.90;;
72479;SDS011;60503;43.540;-5.510;2023-07-13T20:16:41;1961.45;;;860.95;;
72479;SDS011;60503;43.540;-5.510;2023-07-13T20:19:11;1999.90;;;941.95;;
72479;SDS011;60503;43.540;-5.510;2023-07-13T20:21:37;1969.53;;;864.30;;
72479;SDS011;60503;43.540;-5.510;2023-07-13T20:27:24;1999.90;;;873.75;;
72479;SDS011;60503;43.540;-5.510;2023-07-13T20:39:55;1999.90;;;999.90;;
72479;SDS011;60503;43.540;-5.510;2023-07-13T20:42:21;1814.82;;;889.28;;
72479;SDS011;60503;43.540;-5.510;2023-07-13T20:44:46;1999.90;;;999.90;;
72479;SDS011;60503;43.540;-5.510;2023-07-13T20:49:47;1999.90;;;998.83;;
72479;SDS011;60503;43.540;-5.510;2023-07-13T20:52:13;1999.90;;;999.90;;
72479;SDS011;60503;43.540;-5.510;2023-07-13T20:54:39;1762.82;;;815.90;;
72479;SDS011;60503;43.540;-5.510;2023-07-13T20:57:09;1999.90;;;936.50;;
72479;SDS011;60503;43.540;-5.510;2023-07-13T21:03:01;440.17;;;186.93;;
72479;SDS011;60503;43.540;-5.510;2023-07-13T21:05:38;455.05;;;183.55;;
72479;SDS011;60503;43.540;-5.510;2023-07-13T21:08:15;1454.60;;;694.75;;
72479;SDS011;60503;43.540;-5.510;2023-07-13T21:10:42;1279.13;;;640.30;;
72479;SDS011;60503;43.540;-5.510;2023-07-13T21:13:08;279.75;;;98.43;;
72479;SDS011;60503;43.540;-5.510;2023-07-13T21:15:33;223.02;;;73.78;;
72479;SDS011;60503;43.540;-5.510;2023-07-13T21:18:01;694.83;;;311.17;;
72479;SDS011;60503;43.540;-5.510;2023-07-13T21:20:31;979.03;;;429.52;;
72479;SDS011;60503;43.540;-5.510;2023-07-13T21:22:59;751.80;;;340.70;;
72479;SDS011;60503;43.540;-5.510;2023-07-13T21:25:26;1461.15;;;702.42;;
72479;SDS011;60503;43.540;-5.510;2023-07-13T21:27:55;629.07;;;279.97;;
72479;SDS011;60503;43.540;-5.510;2023-07-13T21:32:55;1010.28;;;463.75;;
72479;SDS011;60503;43.540;-5.510;2023-07-13T21:38:43;1144.43;;;503.85;;
72479;SDS011;60503;43.540;-5.510;2023-07-13T21:43:49;78.57;;;26.40;;
72479;SDS011;60503;43.540;-5.510;2023-07-13T21:46:15;500.30;;;177.63;;
72479;SDS011;60503;43.540;-5.510;2023-07-13T22:00:48;6.75;;;2.05;;
72479;SDS011;60503;43.540;-5.510;2023-07-13T22:03:57;46.03;;;14.10;;
72479;SDS011;60503;43.540;-5.510;2023-07-13T22:09:26;52.28;;;16.52;;
72479;SDS011;60503;43.540;-5.510;2023-07-13T22:11:52;50.85;;;15.85;;
72479;SDS011;60503;43.540;-5.510;2023-07-13T22:14:17;134.98;;;40.78;;
72479;SDS011;60503;43.540;-5.510;2023-07-13T22:16:43;690.70;;;288.98;;
72479;SDS011;60503;43.540;-5.510;2023-07-13T22:19:10;250.48;;;81.68;;
72479;SDS011;60503;43.540;-5.510;2023-07-13T22:21:38;541.80;;;190.93;;
72479;SDS011;60503;43.540;-5.510;2023-07-13T22:27:25;73.68;;;23.80;;
72479;SDS011;60503;43.540;-5.510;2023-07-13T22:29:54;175.35;;;64.10;;
72479;SDS011;60503;43.540;-5.510;2023-07-13T22:35:41;9.52;;;2.55;;
72479;SDS011;60503;43.540;-5.510;2023-07-13T22:38:13;4.18;;;2.00;;
72479;SDS011;60503;43.540;-5.510;2023-07-13T22:40:41;3.80;;;1.70;;
72479;SDS011;60503;43.540;-5.510;2023-07-13T22:43:16;2.65;;;1.85;;
72479;SDS011;60503;43.540;-5.510;2023-07-13T22:49:20;5.72;;;2.65;;
72479;SDS011;60503;43.540;-5.510;2023-07-13T22:51:50;5.13;;;2.10;;
72479;SDS011;60503;43.540;-5.510;2023-07-13T22:54:16;3.90;;;2.00;;
72479;SDS011;60503;43.540;-5.510;2023-07-13T22:56:42;5.57;;;2.20;;
72479;SDS011;60503;43.540;-5.510;2023-07-13T22:59:07;2.13;;;1.58;;
72479;SDS011;60503;43.540;-5.510;2023-07-13T23:01:33;5.10;;;1.70;;
72479;SDS011;60503;43.540;-5.510;2023-07-13T23:04:01;3.55;;;1.88;;
72479;SDS011;60503;43.540;-5.510;2023-07-13T23:06:39;5.20;;;1.70;;
72479;SDS011;60503;43.540;-5.510;2023-07-13T23:09:05;4.68;;;2.08;;
72479;SDS011;60503;43.540;-5.510;2023-07-13T23:11:35;3.72;;;1.77;;
72479;SDS011;60503;43.540;-5.510;2023-07-13T23:14:01;3.22;;;1.90;;
72479;SDS011;60503;43.540;-5.510;2023-07-13T23:16:27;2.95;;;1.60;;
72479;SDS011;60503;43.540;-5.510;2023-07-13T23:18:54;3.95;;;1.60;;
72479;SDS011;60503;43.540;-5.510;2023-07-13T23:21:20;2.75;;;1.70;;
72479;SDS011;60503;43.540;-5.510;2023-07-13T23:23:46;3.42;;;1.67;;
72479;SDS011;60503;43.540;-5.510;2023-07-13T23:26:16;3.58;;;1.85;;
72479;SDS011;60503;43.540;-5.510;2023-07-13T23:28:43;2.58;;;1.67;;
72479;SDS011;60503;43.540;-5.510;2023-07-13T23:35:15;6.38;;;1.63;;
72479;SDS011;60503;43.540;-5.510;2023-07-13T23:37:42;3.17;;;1.40;;
72479;SDS011;60503;43.540;-5.510;2023-07-13T23:40:19;2.80;;;1.50;;
72479;SDS011;60503;43.540;-5.510;2023-07-13T23:42:49;3.95;;;1.63;;
72479;SDS011;60503;43.540;-5.510;2023-07-13T23:45:20;3.55;;;1.30;;
72479;SDS011;60503;43.540;-5.510;2023-07-13T23:50:58;3.65;;;1.50;;
72479;SDS011;60503;43.540;-5.510;2023-07-13T23:53:23;4.25;;;1.88;;
72479;SDS011;60503;43.540;-5.510;2023-07-13T23:55:48;4.32;;;1.70;;
